Time;durP1;ratioP1;P1;durP2;ratioP2;P2;SDS_P1;SDS_P2;PMS_P1;PMS_P2;Temp;Humidity;BMP_temperature;BMP_pressure;BME280_temperature;BME280_humidity;BME280_pressure;Samples;Min_cycle;Max_cycle;Signal;HPM_P1;HPM_P2
2022/01/21 00:01:30;;;;;;;0.00;0.00;;;;;;;3.75;55.25;98940.78;5090434;28;20111;-75
2022/01/21 00:03:55;;;;;;;0.00;0.00;;;;;;;3.69;55.34;98943.31;5095890;28;20106;-75
2022/01/21 00:06:21;;;;;;;0.00;0.00;;;;;;;3.64;55.74;98942.44;5111417;28;20069;-75
2022/01/21 00:08:48;;;;;;;0.00;0.00;;;;;;;3.53;55.49;98928.97;5111529;28;20035;-74
2022/01/21 00:11:15;;;;;;;0.00;0.00;;;;;;;3.34;55.66;98906.34;5113020;28;20024;-73
2022/01/21 00:13:41;;;;;;;0.00;0.00;;;;;;;3.53;55.28;98944.06;5112737;28;20088;-73
2022/01/21 00:16:10;;;;;;;0.00;0.00;;;;;;;3.53;55.48;98951.97;5100495;28;20038;-73
2022/01/21 00:18:42;;;;;;;0.00;0.00;;;;;;;3.45;55.37;98947.84;5097462;28;20020;-73
2022/01/21 00:32:05;;;;;;;0.00;0.00;;;;;;;3.27;56.24;98940.03;5112587;28;20579;-72
2022/01/21 00:34:31;;;;;;;0.00;0.00;;;;;;;3.27;56.24;98948.78;5111884;28;20110;-72
2022/01/21 00:36:57;;;;;;;0.00;0.00;;;;;;;3.27;55.99;98937.38;5112069;28;20142;-71
2022/01/21 00:39:25;;;;;;;0.00;0.00;;;;;;;3.24;56.21;98938.66;5110345;28;20626;-73
2022/01/21 00:42:30;;;;;;;0.00;0.00;;;;;;;3.28;56.16;98931.06;5112070;28;20425;-73
2022/01/21 00:44:59;;;;;;;0.00;0.00;;;;;;;3.27;56.08;98932.94;5102828;28;20475;-73
2022/01/21 00:47:25;;;;;;;0.00;0.00;;;;;;;3.33;55.44;98928.53;5090607;28;20048;-71
2022/01/21 00:49:55;;;;;;;0.00;0.00;;;;;;;3.33;55.42;98920.59;5091755;28;20035;-73
2022/01/21 00:52:20;;;;;;;0.00;0.00;;;;;;;3.27;55.42;98905.69;5091381;28;20078;-73
2022/01/21 00:54:46;;;;;;;0.00;0.00;;;;;;;3.42;55.05;98923.69;5090426;28;20471;-73
2022/01/21 00:57:11;;;;;;;0.00;0.00;;;;;;;3.45;55.01;98924.03;5109557;28;20027;-74
2022/01/21 00:59:37;;;;;;;0.00;0.00;;;;;;;3.38;54.80;98910.13;5111811;28;20034;-73
2022/01/21 01:02:03;;;;;;;0.00;0.00;;;;;;;3.49;54.77;98919.91;5111382;28;20110;-73
2022/01/21 01:04:29;;;;;;;0.00;0.00;;;;;;;3.52;54.83;98906.22;5110721;28;20114;-73
2022/01/21 01:06:55;;;;;;;0.00;0.00;;;;;;;3.49;54.73;98898.75;5110372;28;20055;-72
2022/01/21 01:09:20;;;;;;;0.00;0.00;;;;;;;3.61;54.53;98908.50;5112284;28;20077;-71
2022/01/21 01:12:17;;;;;;;0.00;0.00;;;;;;;3.53;54.77;98888.53;5095972;28;20043;-72
2022/01/21 01:20:03;;;;;;;0.00;0.00;;;;;;;3.65;54.10;98873.44;5111591;28;20035;-71
2022/01/21 01:27:48;;;;;;;0.00;0.00;;;;;;;3.73;54.54;98866.94;5091299;28;20581;-73
2022/01/21 01:30:17;;;;;;;0.00;0.00;;;;;;;3.81;54.42;98885.09;5091249;28;20111;-73
2022/01/21 01:32:46;;;;;;;0.00;0.00;;;;;;;3.77;54.45;98875.22;5091210;28;20036;-71
2022/01/21 01:35:14;;;;;;;0.00;0.00;;;;;;;3.82;54.31;98883.25;5110001;28;20096;-72
2022/01/21 01:50:52;;;;;;;0.00;0.00;;;;;;;3.69;53.58;98840.16;5111222;28;20036;-73
2022/01/21 01:53:22;;;;;;;0.00;0.00;;;;;;;3.76;53.11;98845.34;5111370;28;20055;-74
2022/01/21 01:55:48;;;;;;;0.00;0.00;;;;;;;3.70;53.54;98833.06;5110814;28;20027;-74
2022/01/21 01:58:14;;;;;;;0.00;0.00;;;;;;;3.71;53.41;98825.91;5111507;28;20024;-75
2022/01/21 02:00:42;;;;;;;0.00;0.00;;;;;;;3.72;53.21;98819.59;5108810;28;20383;-74
2022/01/21 02:03:12;;;;;;;0.00;0.00;;;;;;;3.70;53.31;98803.97;5109807;28;20028;-74
2022/01/21 02:05:37;;;;;;;0.00;0.00;;;;;;;3.72;53.32;98806.38;5108247;28;20445;-77
2022/01/21 02:08:03;;;;;;;0.00;0.00;;;;;;;3.76;53.14;98823.34;5089447;28;20028;-76
2022/01/21 02:10:29;;;;;;;0.00;0.00;;;;;;;3.78;53.00;98826.56;5091388;28;20081;-76
2022/01/21 02:13:03;;;;;;;0.00;0.00;;;;;;;3.77;53.22;98833.72;5090669;28;20032;-75
2022/01/21 02:15:30;;;;;;;0.00;0.00;;;;;;;3.79;53.17;98839.56;5089622;28;20292;-75
2022/01/21 02:23:26;;;;;;;0.00;0.00;;;;;;;3.75;52.79;98825.22;5090918;28;20031;-75
2022/01/21 02:25:51;;;;;;;0.00;0.00;;;;;;;3.87;53.00;98841.03;5092468;28;20399;-75
2022/01/21 02:28:18;;;;;;;0.00;0.00;;;;;;;3.87;53.11;98851.63;5099665;28;20107;-75
2022/01/21 02:30:57;;;;;;;0.00;0.00;;;;;;;3.88;53.12;98839.19;5093316;28;20047;-73
2022/01/21 02:33:23;;;;;;;0.00;0.00;;;;;;;3.79;52.86;98815.75;5094513;28;20028;-73
2022/01/21 02:35:49;;;;;;;0.00;0.00;;;;;;;3.83;52.91;98813.44;5094107;28;20077;-73
2022/01/21 02:38:15;;;;;;;0.00;0.00;;;;;;;3.85;52.89;98820.09;5094832;28;20043;-73
2022/01/21 02:40:41;;;;;;;0.00;0.00;;;;;;;3.88;52.78;98802.94;5093045;28;20024;-74
2022/01/21 02:43:06;;;;;;;0.00;0.00;;;;;;;3.90;52.39;98790.28;5105128;28;20876;-73
2022/01/21 02:45:32;;;;;;;0.00;0.00;;;;;;;3.90;52.57;98781.56;5113384;28;20020;-73
2022/01/21 02:47:58;;;;;;;0.00;0.00;;;;;;;3.77;53.28;98780.00;5105327;28;20023;-74
2022/01/21 02:50:23;;;;;;;0.00;0.00;;;;;;;3.82;53.51;98815.28;5093904;28;20024;-74
2022/01/21 02:53:08;;;;;;;0.00;0.00;;;;;;;3.80;53.56;98813.94;5094147;28;20051;-75
2022/01/21 02:55:33;;;;;;;0.00;0.00;;;;;;;3.79;53.11;98821.03;5092838;28;20081;-75
2022/01/21 02:57:58;;;;;;;0.00;0.00;;;;;;;3.51;53.42;98779.53;5092482;28;20032;-73
2022/01/21 03:00:24;;;;;;;0.00;0.00;;;;;;;3.81;53.32;98831.41;5092475;28;20105;-73
2022/01/21 03:02:49;;;;;;;0.10;0.10;;;;;;;3.77;53.10;98830.25;5100931;28;20028;-73
2022/01/21 03:05:16;;;;;;;0.00;0.00;;;;;;;3.71;53.46;98833.84;5093887;28;20456;-72
2022/01/21 03:07:42;;;;;;;0.00;0.00;;;;;;;3.75;53.63;98856.94;5094068;28;20039;-72
2022/01/21 03:10:08;;;;;;;0.00;0.00;;;;;;;3.70;53.37;98851.56;5092272;28;20032;-74
2022/01/21 03:12:34;;;;;;;0.00;0.00;;;;;;;3.74;52.63;98862.50;5092191;28;20097;-73
2022/01/21 03:14:59;;;;;;;0.00;0.00;;;;;;;3.69;53.31;98861.34;5092200;28;20111;-73
2022/01/21 03:17:24;;;;;;;0.00;0.00;;;;;;;3.55;53.55;98841.47;5092472;28;20039;-74
2022/01/21 03:19:50;;;;;;;0.00;0.00;;;;;;;3.42;54.49;98858.44;5093681;28;20651;-75
2022/01/21 03:22:16;;;;;;;0.05;0.05;;;;;;;3.10;56.15;98855.38;5093644;28;20028;-75
2022/01/21 03:24:41;;;;;;;0.00;0.00;;;;;;;2.99;56.93;98873.66;5093316;28;20106;-75
2022/01/21 03:27:07;;;;;;;0.00;0.00;;;;;;;2.88;57.18;98891.09;5093013;28;20028;-75
2022/01/21 03:29:32;;;;;;;0.00;0.00;;;;;;;2.77;57.03;98891.91;5093239;28;20035;-75
2022/01/21 03:31:58;;;;;;;0.10;0.10;;;;;;;2.55;57.55;98873.97;5092988;28;20031;-75
2022/01/21 03:34:23;;;;;;;0.00;0.00;;;;;;;2.50;57.63;98886.22;5093349;28;20498;-75
2022/01/21 03:36:49;;;;;;;0.03;0.03;;;;;;;2.43;57.94;98882.88;5094940;28;20027;-76
2022/01/21 03:39:16;;;;;;;0.00;0.00;;;;;;;2.26;58.25;98869.53;5101291;28;20111;-75
2022/01/21 03:41:41;;;;;;;0.08;0.08;;;;;;;2.15;58.72;98864.00;5091794;28;20411;-75
2022/01/21 03:44:06;;;;;;;0.10;0.10;;;;;;;2.08;59.64;98860.66;5093311;28;20032;-76
2022/01/21 03:46:32;;;;;;;0.00;0.00;;;;;;;2.04;59.62;98875.34;5091826;28;20252;-75
2022/01/21 03:48:57;;;;;;;0.00;0.00;;;;;;;2.00;59.52;98884.69;5092557;28;20032;-78
2022/01/21 03:51:23;;;;;;;0.00;0.00;;;;;;;2.01;59.55;98891.59;5093088;28;20034;-75
2022/01/21 03:53:48;;;;;;;0.00;0.00;;;;;;;2.00;60.09;98895.25;5092473;28;20050;-78
2022/01/21 03:56:15;;;;;;;0.00;0.00;;;;;;;2.02;59.55;98901.91;5091563;28;20028;-74
2022/01/21 03:58:41;;;;;;;0.00;0.00;;;;;;;1.92;59.90;98877.91;5091476;28;20490;-72
2022/01/21 04:01:07;;;;;;;0.10;0.10;;;;;;;2.01;59.56;98902.13;5092102;28;20032;-72
2022/01/21 04:03:33;;;;;;;0.00;0.00;;;;;;;2.03;59.95;98895.63;5093740;28;20024;-75
2022/01/21 04:05:58;;;;;;;0.00;0.00;;;;;;;1.99;59.88;98881.28;5091206;28;20065;-75
2022/01/21 04:08:23;;;;;;;0.03;0.03;;;;;;;1.98;59.78;98874.38;5091430;28;20035;-74
2022/01/21 04:10:49;;;;;;;0.25;0.25;;;;;;;2.02;59.80;98874.75;5091476;28;20035;-75
2022/01/21 04:13:18;;;;;;;0.00;0.00;;;;;;;2.09;59.74;98893.94;5091050;28;20399;-74
2022/01/21 04:15:46;;;;;;;0.00;0.00;;;;;;;2.06;59.64;98889.91;5109840;28;20035;-76
2022/01/21 04:18:14;;;;;;;0.00;0.00;;;;;;;2.13;59.31;98891.66;5110956;28;20035;-75
2022/01/21 04:20:41;;;;;;;;;;;;;;;2.18;59.18;98894.41;5111893;28;20027;-75
2022/01/21 04:23:07;;;;;;;0.00;0.00;;;;;;;2.12;59.53;98895.31;5102211;28;19916;-75
2022/01/21 04:25:32;;;;;;;0.00;0.00;;;;;;;2.12;59.45;98880.28;5091100;28;20020;-74
2022/01/21 04:27:58;;;;;;;0.00;0.00;;;;;;;2.19;59.16;98885.47;5091750;28;20065;-74
2022/01/21 04:30:23;;;;;;;0.00;0.00;;;;;;;2.09;58.74;98864.91;5090811;28;20417;-74
2022/01/21 04:32:49;;;;;;;0.00;0.00;;;;;;;2.18;58.76;98878.56;5092349;28;20452;-75
2022/01/21 04:35:14;;;;;;;0.00;0.00;;;;;;;1.95;58.48;98848.44;5090818;28;20024;-73
2022/01/21 04:37:47;;;;;;;0.00;0.00;;;;;;;2.22;58.43;98890.28;5090828;28;20511;-75
2022/01/21 04:40:16;;;;;;;0.00;0.00;;;;;;;2.26;58.26;98888.00;5091718;28;20024;-74
2022/01/21 04:48:09;;;;;;;0.00;0.00;;;;;;;2.33;58.61;98900.09;5111671;28;20085;-78
2022/01/21 04:50:52;;;;;;;0.00;0.00;;;;;;;2.34;58.77;98917.50;5098210;28;20032;-74
2022/01/21 04:53:18;;;;;;;0.00;0.00;;;;;;;2.35;58.99;98923.59;5100674;28;20036;-77
2022/01/21 04:55:44;;;;;;;0.00;0.00;;;;;;;2.34;59.11;98922.78;5110877;28;20032;-76
2022/01/21 04:58:09;;;;;;;0.00;0.00;;;;;;;2.25;59.32;98908.31;5094777;28;20034;-74
2022/01/21 05:00:35;;;;;;;0.00;0.00;;;;;;;2.23;58.99;98908.53;5090332;28;20065;-73
2022/01/21 05:03:00;;;;;;;0.00;0.00;;;;;;;2.36;59.01;98915.44;5099833;28;20032;-74
2022/01/21 05:05:26;;;;;;;0.00;0.00;;;;;;;2.27;59.39;98895.72;5107786;28;20074;-74
2022/01/21 05:07:53;;;;;;;0.00;0.00;;;;;;;2.27;59.06;98892.25;5090316;28;20031;-77
2022/01/21 05:10:19;;;;;;;0.00;0.00;;;;;;;2.36;59.57;98902.25;5090081;28;20088;-80
2022/01/21 05:12:44;;;;;;;0.00;0.00;;;;;;;2.36;59.94;98899.63;5090296;28;20507;-75
2022/01/21 05:15:44;;;;;;;0.00;0.00;;;;;;;2.30;59.12;98879.41;5089913;28;20032;-75
2022/01/21 05:17:58;;;;;;;0.00;0.00;;;;;;;2.35;58.24;98887.44;5106351;27;20031;-76
2022/01/21 05:20:24;;;;;;;0.00;0.00;;;;;;;2.37;58.12;98895.94;5091302;28;20123;-75
2022/01/21 05:22:49;;;;;;;0.00;0.00;;;;;;;2.30;58.31;98884.69;5107586;28;20521;-75
2022/01/21 05:25:18;;;;;;;0.00;0.00;;;;;;;2.37;58.12;98911.78;5101781;28;20570;-73
2022/01/21 05:27:51;;;;;;;0.00;0.00;;;;;;;2.41;58.54;98930.63;5110138;28;20448;-81
2022/01/21 05:30:17;;;;;;;0.00;0.00;;;;;;;2.42;58.57;98931.41;5104310;28;20473;-75
2022/01/21 05:32:42;;;;;;;0.00;0.00;;;;;;;2.46;58.33;98933.38;5098121;28;20042;-75
2022/01/21 05:35:08;;;;;;;0.00;0.00;;;;;;;2.40;58.08;98919.28;5095037;28;20028;-75
2022/01/21 05:37:35;;;;;;;0.00;0.00;;;;;;;2.56;58.29;98956.59;5091280;28;20028;-75
2022/01/21 05:40:06;;;;;;;0.00;0.00;;;;;;;2.56;58.42;98953.97;5090748;28;20032;-75
2022/01/21 05:42:34;;;;;;;0.00;0.00;;;;;;;2.61;57.92;98959.34;5089528;28;20115;-75
2022/01/21 05:47:26;;;;;;;0.45;0.45;;;;;;;2.65;57.50;98967.63;5090829;28;20031;-75
2022/01/21 05:49:51;;;;;;;0.00;0.00;;;;;;;2.69;57.06;98958.25;5090965;28;20020;-75
2022/01/21 05:52:17;;;;;;;0.00;0.00;;;;;;;2.66;56.53;98962.16;5090318;28;20070;-75
2022/01/21 05:54:45;;;;;;;0.00;0.00;;;;;;;2.69;57.59;98968.81;5089808;28;20546;-76
2022/01/21 05:57:13;;;;;;;0.00;0.00;;;;;;;2.68;57.97;98968.00;5090450;28;20208;-74
2022/01/21 05:59:39;;;;;;;0.00;0.00;;;;;;;2.72;57.31;98976.25;5090344;28;20361;-75
2022/01/21 06:02:05;;;;;;;0.00;0.00;;;;;;;2.72;56.91;98968.34;5092853;28;20035;-76
2022/01/21 06:04:32;;;;;;;0.00;0.00;;;;;;;2.78;56.29;98983.28;5094603;28;20106;-74
2022/01/21 06:06:58;;;;;;;0.00;0.00;;;;;;;2.86;55.92;99004.09;5093035;28;20026;-74
2022/01/21 06:09:23;;;;;;;0.00;0.00;;;;;;;2.89;55.15;98997.56;5092439;28;20119;-74
2022/01/21 06:11:51;;;;;;;0.00;0.00;;;;;;;2.84;55.47;98978.94;5092690;28;20074;-74
2022/01/21 06:14:16;;;;;;;0.43;0.43;;;;;;;2.89;56.24;99008.13;5093937;28;20028;-73
2022/01/21 06:16:42;;;;;;;0.08;0.08;;;;;;;2.90;56.66;99015.00;5094055;28;20020;-73
2022/01/21 06:19:07;;;;;;;0.00;0.00;;;;;;;2.81;56.47;98996.06;5093804;28;20028;-75
2022/01/21 06:21:33;;;;;;;0.00;0.00;;;;;;;2.71;57.15;98993.13;5092548;28;20056;-75
2022/01/21 06:23:58;;;;;;;0.10;0.10;;;;;;;2.74;57.26;99000.63;5093686;28;20052;-75
2022/01/21 06:26:24;;;;;;;0.00;0.00;;;;;;;2.63;57.83;98989.00;5092411;28;20028;-75
2022/01/21 06:28:49;;;;;;;0.00;0.00;;;;;;;2.64;57.67;98995.88;5093983;28;20020;-75
2022/01/21 06:31:15;;;;;;;0.00;0.00;;;;;;;2.63;57.81;98998.75;5093387;28;20020;-74
2022/01/21 06:33:40;;;;;;;0.00;0.00;;;;;;;2.74;58.40;99034.16;5093410;28;20124;-75
2022/01/21 06:36:06;;;;;;;0.38;0.38;;;;;;;2.75;57.38;99031.28;5093524;28;20328;-75
2022/01/21 06:38:31;;;;;;;0.17;0.17;;;;;;;2.80;57.27;99038.53;5093762;28;20032;-75
2022/01/21 06:40:57;;;;;;;0.00;0.00;;;;;;;2.84;56.99;99055.53;5092396;28;20032;-75
2022/01/21 06:43:22;;;;;;;0.00;0.00;;;;;;;2.88;56.29;99046.13;5093392;28;20115;-75
2022/01/21 06:45:48;;;;;;;0.00;0.00;;;;;;;2.94;57.39;99057.63;5092267;28;20028;-74
2022/01/21 06:48:14;;;;;;;0.00;0.00;;;;;;;2.99;57.67;99068.31;5093422;28;20020;-74
2022/01/21 06:50:41;;;;;;;3.75;2.10;;;;;;;3.00;56.36;99070.75;5092182;28;20391;-74
2022/01/21 06:53:07;;;;;;;0.05;0.05;;;;;;;3.03;56.12;99064.22;5091607;28;20576;-75
2022/01/21 06:55:33;;;;;;;0.00;0.00;;;;;;;3.07;55.06;99068.00;5092153;28;20032;-75
2022/01/21 06:57:58;;;;;;;0.35;0.35;;;;;;;3.06;55.06;99058.47;5092143;28;20028;-74
2022/01/21 07:00:24;;;;;;;0.85;0.85;;;;;;;3.22;54.34;99082.66;5092295;28;20109;-75
2022/01/21 07:02:51;;;;;;;0.40;0.40;;;;;;;3.10;54.86;99064.09;5092515;28;20024;-75
2022/01/21 07:05:17;;;;;;;0.10;0.10;;;;;;;3.28;55.36;99081.72;5092226;28;20038;-75
2022/01/21 07:07:43;;;;;;;0.10;0.10;;;;;;;3.42;56.14;99090.25;5093759;28;20475;-75
2022/01/21 07:10:11;;;;;;;0.40;0.40;;;;;;;3.40;56.56;99093.13;5091981;28;20035;-75
2022/01/21 07:12:37;;;;;;;2.53;0.75;;;;;;;3.46;58.33;99104.66;5092515;28;20055;-74
2022/01/21 07:15:05;;;;;;;0.00;0.00;;;;;;;3.46;59.67;99100.16;5092247;28;20028;-74
2022/01/21 07:17:30;;;;;;;0.00;0.00;;;;;;;3.47;61.70;99104.41;5092371;28;20038;-74
2022/01/21 07:19:56;;;;;;;0.73;0.73;;;;;;;3.44;62.70;99115.47;5092376;28;20024;-75
2022/01/21 07:22:21;;;;;;;0.17;0.15;;;;;;;3.45;63.78;99113.59;5093039;28;20502;-75
2022/01/21 07:24:47;;;;;;;0.00;0.00;;;;;;;3.42;64.62;99120.16;5092191;28;20020;-75
2022/01/21 07:27:13;;;;;;;0.00;0.00;;;;;;;3.37;65.83;99109.47;5091879;28;20065;-74
2022/01/21 07:29:38;;;;;;;0.00;0.00;;;;;;;3.45;66.94;99132.13;5092182;28;20020;-76
2022/01/21 07:32:04;;;;;;;0.28;0.28;;;;;;;3.42;68.00;99136.03;5092052;28;20032;-75
2022/01/21 07:34:30;;;;;;;0.00;0.00;;;;;;;3.29;69.05;99123.78;5093868;28;20055;-74
2022/01/21 07:36:55;;;;;;;0.35;0.35;;;;;;;3.29;69.67;99134.38;5093045;28;20024;-74
2022/01/21 07:39:22;;;;;;;0.55;0.55;;;;;;;3.32;70.55;99144.50;5091807;28;20031;-74
2022/01/21 07:41:48;;;;;;;0.00;0.00;;;;;;;3.28;71.14;99156.53;5093437;28;20111;-74
2022/01/21 07:44:14;;;;;;;0.10;0.10;;;;;;;3.27;71.86;99167.34;5091598;28;20110;-76
2022/01/21 07:46:41;;;;;;;0.00;0.00;;;;;;;3.19;72.89;99165.84;5091802;28;20028;-75
2022/01/21 07:49:07;;;;;;;0.00;0.00;;;;;;;3.12;73.39;99165.91;5091602;28;20162;-74
2022/01/21 07:51:32;;;;;;;0.30;0.30;;;;;;;3.09;73.77;99161.09;5093328;28;20111;-74
2022/01/21 07:53:58;;;;;;;0.00;0.00;;;;;;;2.96;74.51;99156.75;5093125;28;20051;-76
2022/01/21 07:56:23;;;;;;;0.00;0.00;;;;;;;3.02;75.14;99176.22;5092629;28;20548;-75
2022/01/21 07:58:50;;;;;;;0.08;0.08;;;;;;;2.94;75.69;99174.69;5091599;28;20115;-75
2022/01/21 08:01:15;;;;;;;0.10;0.10;;;;;;;2.84;76.12;99175.19;5092265;28;20055;-75
2022/01/21 08:03:41;;;;;;;0.00;0.00;;;;;;;2.96;76.49;99180.53;5092627;28;20028;-75
2022/01/21 08:06:06;;;;;;;0.25;0.25;;;;;;;2.91;76.97;99180.41;5092483;28;20475;-74
2022/01/21 08:08:32;;;;;;;0.20;0.20;;;;;;;3.00;77.39;99200.22;5092731;28;20039;-74
2022/01/21 08:10:57;;;;;;;0.08;0.08;;;;;;;2.96;77.77;99188.47;5092620;28;20028;-75
2022/01/21 08:13:23;;;;;;;0.00;0.00;;;;;;;3.00;77.95;99208.16;5091073;28;20038;-75
2022/01/21 08:15:48;;;;;;;0.00;0.00;;;;;;;2.93;78.22;99196.84;5091437;28;20411;-75
2022/01/21 08:18:15;;;;;;;0.00;0.00;;;;;;;3.04;78.60;99217.22;5091028;28;20401;-75
2022/01/21 08:20:42;;;;;;;0.00;0.00;;;;;;;2.92;78.43;99208.44;5092638;28;20032;-75
2022/01/21 08:23:07;;;;;;;0.05;0.05;;;;;;;3.02;78.98;99221.94;5091422;28;20024;-75
2022/01/21 08:25:33;;;;;;;0.10;0.10;;;;;;;3.03;79.34;99226.19;5091022;28;20028;-74
2022/01/21 08:27:59;;;;;;;0.00;0.00;;;;;;;3.02;79.53;99234.34;5092117;28;20471;-73
2022/01/21 08:30:25;;;;;;;0.00;0.00;;;;;;;2.97;79.66;99228.91;5091869;28;20059;-74
2022/01/21 08:32:50;;;;;;;0.10;0.10;;;;;;;2.99;79.77;99245.34;5090963;28;20073;-74
2022/01/21 08:35:15;;;;;;;0.00;0.00;;;;;;;2.99;79.95;99242.69;5091994;28;20063;-75
2022/01/21 08:37:41;;;;;;;0.00;0.00;;;;;;;3.03;80.10;99252.59;5091001;28;20075;-74
2022/01/21 08:40:08;;;;;;;0.00;0.00;;;;;;;2.90;80.14;99233.47;5090872;28;20032;-75
2022/01/21 08:42:33;;;;;;;0.00;0.00;;;;;;;2.97;80.22;99248.22;5090731;28;20412;-75
2022/01/21 08:44:58;;;;;;;0.00;0.00;;;;;;;3.01;80.49;99259.94;5090766;28;20114;-75
2022/01/21 08:47:24;;;;;;;0.32;0.32;;;;;;;3.00;80.49;99262.81;5091559;28;20027;-74
2022/01/21 08:49:51;;;;;;;0.00;0.00;;;;;;;2.96;80.93;99262.44;5091930;28;20395;-75
2022/01/21 08:52:21;;;;;;;0.00;0.00;;;;;;;2.93;81.63;99277.94;5091332;28;20048;-74
2022/01/21 08:54:47;;;;;;;0.00;0.00;;;;;;;2.84;82.12;99283.50;5091705;28;20023;-74
2022/01/21 08:57:14;;;;;;;0.00;0.00;;;;;;;2.75;82.13;99263.69;5090281;28;20415;-74
2022/01/21 08:59:39;;;;;;;0.00;0.00;;;;;;;2.58;82.19;99226.50;5090560;28;20064;-74
2022/01/21 09:02:05;;;;;;;0.00;0.00;;;;;;;2.82;82.56;99266.25;5091647;28;20466;-74
2022/01/21 09:04:32;;;;;;;0.00;0.00;;;;;;;2.87;82.59;99269.06;5090241;28;20058;-74
2022/01/21 09:06:58;;;;;;;0.00;0.00;;;;;;;2.93;82.31;99272.66;5091787;28;20032;-74
2022/01/21 09:09:24;;;;;;;0.00;0.00;;;;;;;2.98;82.28;99280.72;5090205;28;20033;-74
2022/01/21 09:11:52;;;;;;;0.00;0.00;;;;;;;2.91;82.53;99272.88;5090364;28;20024;-74
2022/01/21 09:14:17;;;;;;;0.00;0.00;;;;;;;2.84;82.67;99262.34;5089960;28;20484;-74
2022/01/21 09:16:42;;;;;;;0.00;0.00;;;;;;;2.85;83.09;99277.19;5090138;28;20035;-74
2022/01/21 09:19:08;;;;;;;0.10;0.10;;;;;;;2.70;83.03;99261.69;5090249;28;20495;-74
2022/01/21 09:21:37;;;;;;;0.45;0.45;;;;;;;2.66;83.65;99259.72;5091095;28;20032;-74
2022/01/21 09:24:03;;;;;;;;;;;;;;;2.74;83.34;99277.91;5091948;28;20024;-74
2022/01/21 09:26:29;;;;;;;0.00;0.00;;;;;;;2.70;83.36;99268.84;5091478;28;19908;-74
2022/01/21 09:28:54;;;;;;;0.00;0.00;;;;;;;2.79;83.78;99277.28;5089977;28;20472;-74
2022/01/21 09:31:20;;;;;;;0.00;0.00;;;;;;;2.60;84.11;99263.22;5091113;28;20047;-74
2022/01/21 09:33:46;;;;;;;0.00;0.00;;;;;;;2.62;84.33;99266.47;5089852;28;20066;-74
2022/01/21 09:36:12;;;;;;;0.00;0.00;;;;;;;2.61;84.74;99270.91;5089639;28;20043;-74
2022/01/21 09:38:38;;;;;;;0.10;0.10;;;;;;;2.62;84.66;99263.81;5090992;28;20068;-74
2022/01/21 09:41:06;;;;;;;0.00;0.00;;;;;;;2.57;84.59;99246.00;5089825;28;20024;-74
2022/01/21 09:43:33;;;;;;;0.00;0.00;;;;;;;2.67;84.10;99254.22;5090828;28;20612;-74
2022/01/21 09:46:05;;;;;;;0.00;0.00;;;;;;;2.58;84.89;99260.03;5089897;28;20036;-74
2022/01/21 09:48:35;;;;;;;0.00;0.00;;;;;;;2.61;84.83;99259.56;5089402;28;20446;-74
2022/01/21 09:51:02;;;;;;;0.00;0.00;;;;;;;2.63;84.78;99253.03;5091076;28;20031;-74
2022/01/21 09:53:30;;;;;;;0.05;0.05;;;;;;;2.71;84.51;99255.41;5089253;28;20056;-75
2022/01/21 09:55:58;;;;;;;0.00;0.00;;;;;;;2.40;84.77;99211.44;5089713;28;20173;-74
2022/01/21 09:58:26;;;;;;;1.13;1.08;;;;;;;2.52;85.00;99208.88;5090749;28;20059;-74
2022/01/21 10:00:52;;;;;;;0.00;0.00;;;;;;;2.82;84.96;99242.47;5090949;28;20137;-74
2022/01/21 10:03:18;;;;;;;0.00;0.00;;;;;;;2.85;84.78;99227.00;5090437;28;20032;-74
2022/01/21 10:05:46;;;;;;;1.80;1.65;;;;;;;2.79;84.80;99225.25;5089659;28;20030;-74
2022/01/21 10:08:14;;;;;;;0.00;0.00;;;;;;;2.81;85.01;99227.69;5089748;28;20033;-74
2022/01/21 10:10:41;;;;;;;0.00;0.00;;;;;;;2.84;85.11;99233.31;5090978;28;20024;-74
2022/01/21 10:13:08;;;;;;;0.00;0.00;;;;;;;2.90;85.00;99217.63;5089541;28;20540;-74
2022/01/21 10:15:34;;;;;;;0.00;0.00;;;;;;;2.84;84.81;99198.16;5089376;28;20463;-74
2022/01/21 10:18:13;;;;;;;0.00;0.00;;;;;;;3.00;85.05;99225.81;5089548;28;20612;-74
2022/01/21 10:21:12;;;;;;;0.00;0.00;;;;;;;3.00;84.67;99213.44;5089245;28;20050;-74
2022/01/21 10:23:43;;;;;;;0.00;0.00;;;;;;;3.04;84.66;99211.16;5089238;28;20060;-74
2022/01/21 10:26:11;;;;;;;0.00;0.00;;;;;;;3.01;84.55;99201.03;5089418;28;20031;-74
2022/01/21 10:28:44;;;;;;;0.00;0.00;;;;;;;3.09;84.60;99207.81;5090562;28;20043;-74
2022/01/21 10:31:16;;;;;;;0.00;0.00;;;;;;;3.12;84.93;99197.63;5090744;28;20032;-74
2022/01/21 10:33:49;;;;;;;0.00;0.00;;;;;;;3.17;84.86;99205.72;5089282;28;20119;-74
2022/01/21 10:36:28;;;;;;;0.00;0.00;;;;;;;3.09;84.79;99199.91;5090678;28;20660;-74
2022/01/21 10:41:39;;;;;;;0.00;0.00;;;;;;;3.16;84.69;99187.41;5090247;28;20342;-74
2022/01/21 10:44:25;;;;;;;0.00;0.00;;;;;;;3.25;84.20;99186.06;5089288;28;20028;-74
2022/01/21 10:47:09;;;;;;;0.00;0.00;;;;;;;3.31;83.82;99192.31;5093428;28;20550;-75
2022/01/21 10:49:39;;;;;;;0.00;0.00;;;;;;;3.22;83.57;99175.16;5094409;28;20099;-75
2022/01/21 10:52:05;;;;;;;0.00;0.00;;;;;;;3.27;83.17;99180.56;5093726;28;20411;-75
2022/01/21 10:54:30;;;;;;;0.00;0.00;;;;;;;3.15;82.78;99154.91;5094043;28;20089;-75
2022/01/21 10:57:05;;;;;;;0.00;0.00;;;;;;;3.27;82.73;99164.69;5093818;28;20036;-74
2022/01/21 10:59:45;;;;;;;0.00;0.00;;;;;;;3.28;82.26;99164.47;5093540;28;20030;-74
2022/01/21 11:02:11;;;;;;;0.00;0.00;;;;;;;3.26;81.79;99155.16;5092334;28;20171;-74
2022/01/21 11:04:42;;;;;;;0.00;0.00;;;;;;;3.32;81.15;99149.78;5092134;28;20031;-74
2022/01/21 11:07:08;;;;;;;0.00;0.00;;;;;;;3.22;80.53;99133.66;5092675;28;20122;-74
2022/01/21 11:09:37;;;;;;;0.00;0.00;;;;;;;3.34;80.38;99141.63;5092090;28;20043;-74
2022/01/21 11:12:16;;;;;;;0.00;0.00;;;;;;;3.36;78.77;99145.66;5093868;28;20028;-73
2022/01/21 11:14:59;;;;;;;0.00;0.00;;;;;;;3.36;78.31;99131.63;5092335;28;20024;-73
2022/01/21 11:17:25;;;;;;;0.00;0.00;;;;;;;3.32;77.51;99130.47;5092118;28;20024;-74
2022/01/21 11:20:16;;;;;;;0.00;0.00;;;;;;;3.25;77.32;99114.72;5093646;28;20035;-74
2022/01/21 11:22:55;;;;;;;0.00;0.00;;;;;;;3.39;76.62;99128.53;5093495;28;20020;-74
2022/01/21 11:25:44;;;;;;;0.00;0.00;;;;;;;3.42;76.49;99135.19;5091969;28;20031;-75
2022/01/21 11:28:17;;;;;;;0.00;0.00;;;;;;;3.45;76.10;99140.03;5092116;28;20496;-74
2022/01/21 11:30:43;;;;;;;0.75;0.75;;;;;;;3.43;75.52;99134.16;5092086;28;20462;-74
2022/01/21 11:33:09;;;;;;;0.00;0.00;;;;;;;3.38;74.20;99126.91;5092138;28;20032;-74
2022/01/21 11:35:36;;;;;;;0.00;0.00;;;;;;;3.39;74.65;99133.03;5091903;28;20028;-75
2022/01/21 11:38:05;;;;;;;0.00;0.00;;;;;;;3.41;73.80;99129.13;5092097;28;20043;-74
2022/01/21 11:40:32;;;;;;;0.32;0.32;;;;;;;3.32;73.76;99102.22;5091699;28;20032;-75
2022/01/21 11:42:58;;;;;;;0.00;0.00;;;;;;;3.41;72.89;99110.59;5093183;28;20031;-74
2022/01/21 11:50:41;;;;;;;0.10;0.10;;;;;;;3.44;71.56;99099.59;5092593;28;20036;-74
2022/01/21 11:53:07;;;;;;;0.00;0.00;;;;;;;3.47;70.55;99116.84;5091459;28;20189;-75
2022/01/21 11:55:36;;;;;;;0.38;0.38;;;;;;;3.46;70.95;99108.09;5090799;28;20224;-74
2022/01/21 11:58:23;;;;;;;0.05;0.05;;;;;;;3.42;70.41;99109.59;5089758;28;20445;-75
2022/01/21 12:00:51;;;;;;;0.00;0.00;;;;;;;3.41;70.20;99104.53;5090706;28;20031;-75
2022/01/21 12:03:23;;;;;;;0.00;0.00;;;;;;;3.41;69.17;99110.59;5090852;28;20028;-74
2022/01/21 12:05:49;;;;;;;0.00;0.00;;;;;;;3.26;69.21;99086.44;5092176;28;20039;-75
2022/01/21 12:08:15;;;;;;;0.00;0.00;;;;;;;3.42;68.80;99109.59;5090739;28;20050;-74
2022/01/21 12:10:46;;;;;;;0.00;0.00;;;;;;;3.35;67.96;99099.09;5090484;28;20063;-73
2022/01/21 12:13:25;;;;;;;0.00;0.00;;;;;;;3.36;69.08;99090.13;5090638;28;20042;-74
2022/01/21 12:21:05;;;;;;;0.00;0.00;;;;;;;3.34;67.35;99100.16;5091805;28;20035;-74
2022/01/21 12:23:42;;;;;;;0.00;0.00;;;;;;;3.28;66.90;99090.47;5090067;28;20016;-74
2022/01/21 12:26:26;;;;;;;0.00;0.00;;;;;;;3.36;66.43;99103.34;5091524;28;20495;-74
2022/01/21 12:28:52;;;;;;;0.00;0.00;;;;;;;3.36;65.98;99106.00;5090291;28;20479;-74
2022/01/21 12:31:20;;;;;;;0.00;0.00;;;;;;;3.33;65.91;99105.66;5090332;28;20063;-74
2022/01/21 12:36:37;;;;;;;0.00;0.00;;;;;;;3.27;65.87;99109.19;5091376;28;20114;-74
2022/01/21 12:39:24;;;;;;;0.00;0.00;;;;;;;3.29;65.48;99107.13;5090248;28;20081;-74
2022/01/21 12:41:50;;;;;;;0.00;0.00;;;;;;;3.25;65.29;99100.66;5091286;28;20032;-74
2022/01/21 12:44:30;;;;;;;0.00;0.00;;;;;;;3.27;64.98;99106.56;5089954;28;20066;-75
2022/01/21 12:46:56;;;;;;;0.00;0.00;;;;;;;3.20;65.27;99096.09;5091407;28;20099;-74
2022/01/21 12:49:37;;;;;;;0.00;0.00;;;;;;;3.22;65.16;99099.28;5089995;28;20055;-74